createdAt,value
2018-07-08T00:01:31.542Z,13.70
2018-07-08T00:03:59.907Z,14.47
2018-07-08T00:06:28.499Z,12.67
2018-07-08T00:08:56.904Z,11.70
2018-07-08T00:11:25.344Z,12.97
2018-07-08T00:13:53.929Z,12.43
2018-07-08T00:16:22.110Z,12.27
2018-07-08T00:18:50.686Z,12.43
2018-07-08T00:21:19.161Z,12.43
2018-07-08T00:23:47.094Z,12.07
2018-07-08T00:26:15.619Z,12.13
2018-07-08T00:28:44.194Z,11.87
2018-07-08T00:31:12.179Z,11.53
2018-07-08T00:33:40.535Z,11.53
2018-07-08T00:36:09.035Z,11.43
2018-07-08T00:38:37.370Z,11.93
2018-07-08T00:41:05.688Z,12.13
2018-07-08T00:43:34.059Z,12.70
2018-07-08T00:46:02.549Z,11.77
2018-07-08T00:48:31.010Z,11.77
2018-07-08T00:50:59.299Z,11.90
2018-07-08T00:53:27.662Z,10.77
2018-07-08T00:55:56.050Z,11.87
2018-07-08T00:58:24.434Z,11.97
2018-07-08T01:00:52.698Z,11.63
2018-07-08T01:03:21.175Z,12.10
2018-07-08T01:05:49.450Z,12.70
2018-07-08T01:08:17.930Z,11.73
2018-07-08T01:10:46.326Z,11.93
2018-07-08T01:13:14.800Z,12.47
2018-07-08T01:15:43.371Z,13.20
2018-07-08T01:18:11.526Z,12.37
2018-07-08T01:20:40.136Z,11.80
2018-07-08T01:23:08.282Z,11.77
2018-07-08T01:26:19.082Z,12.43
2018-07-08T01:28:47.344Z,11.57
2018-07-08T01:31:15.792Z,11.77
2018-07-08T01:33:44.109Z,12.20
2018-07-08T01:36:12.414Z,10.70
2018-07-08T01:38:40.766Z,11.33
2018-07-08T01:41:09.246Z,10.90
2018-07-08T01:43:37.621Z,11.27
2018-07-08T01:46:06.013Z,11.10
2018-07-08T01:48:34.479Z,10.97
2018-07-08T01:51:02.646Z,11.73
2018-07-08T01:53:31.031Z,11.47
2018-07-08T01:55:59.298Z,10.97
2018-07-08T01:58:27.882Z,11.23
2018-07-08T02:00:56.166Z,12.20
2018-07-08T02:03:24.545Z,12.40
2018-07-08T02:05:52.816Z,13.27
2018-07-08T02:08:21.185Z,12.13
2018-07-08T02:10:49.614Z,11.83
2018-07-08T02:13:18.053Z,11.23
2018-07-08T02:15:46.434Z,11.70
2018-07-08T02:18:14.698Z,12.03
2018-07-08T02:20:43.091Z,9.87
2018-07-08T02:23:11.567Z,10.03
2018-07-08T02:25:39.994Z,9.10
2018-07-08T02:28:08.314Z,8.93
2018-07-08T02:30:36.757Z,8.37
2018-07-08T02:33:05.272Z,7.43
2018-07-08T02:35:34.487Z,7.27
2018-07-08T02:38:03.049Z,7.13
2018-07-08T02:40:31.295Z,6.23
2018-07-08T02:42:59.706Z,7.30
2018-07-08T02:45:27.990Z,6.57
2018-07-08T02:47:56.674Z,6.47
2018-07-08T02:50:25.163Z,6.97
2018-07-08T02:52:53.726Z,6.93
2018-07-08T02:55:22.106Z,7.30
2018-07-08T02:57:50.366Z,6.70
2018-07-08T03:00:18.772Z,6.93
2018-07-08T03:02:47.133Z,7.33
2018-07-08T03:05:15.422Z,7.10
2018-07-08T03:07:43.796Z,7.30
2018-07-08T03:10:12.383Z,7.23
2018-07-08T03:12:40.661Z,7.63
2018-07-08T03:15:09.129Z,7.63
2018-07-08T03:17:37.402Z,7.17
2018-07-08T03:20:05.891Z,7.13
2018-07-08T03:22:34.262Z,6.77
2018-07-08T03:25:02.742Z,7.37
2018-07-08T03:27:31.125Z,9.10
2018-07-08T03:29:59.498Z,7.00
2018-07-08T03:32:27.886Z,6.67
2018-07-08T03:34:56.159Z,7.93
2018-07-08T03:37:24.434Z,7.07
2018-07-08T03:39:52.707Z,7.13
2018-07-08T03:42:20.990Z,7.37
2018-07-08T03:44:49.254Z,7.07
2018-07-08T03:47:17.741Z,7.27
2018-07-08T03:49:46.110Z,7.27
2018-07-08T03:52:14.703Z,7.47
2018-07-08T03:54:43.073Z,7.83
2018-07-08T03:57:11.451Z,7.77
2018-07-08T03:59:39.629Z,6.93
2018-07-08T04:02:07.906Z,6.93
2018-07-08T04:04:36.378Z,6.57
2018-07-08T04:07:04.388Z,7.27
2018-07-08T04:09:32.722Z,6.93
2018-07-08T04:12:00.999Z,6.47
2018-07-08T04:14:29.164Z,6.63
2018-07-08T04:16:57.362Z,7.77
2018-07-08T04:19:25.612Z,6.67
2018-07-08T04:21:53.586Z,7.70
2018-07-08T04:24:21.965Z,6.97
2018-07-08T04:26:50.241Z,6.90
2018-07-08T04:29:18.617Z,7.57
2018-07-08T04:31:46.901Z,6.90
2018-07-08T04:34:15.179Z,7.50
2018-07-08T04:36:43.455Z,11.13
2018-07-08T04:39:11.858Z,7.73
2018-07-08T04:41:40.211Z,7.77
2018-07-08T04:44:08.373Z,7.70
2018-07-08T04:46:36.760Z,9.27
2018-07-08T04:49:04.937Z,8.43
2018-07-08T04:51:33.413Z,8.63
2018-07-08T04:54:01.681Z,10.60
2018-07-08T04:56:30.062Z,10.10
2018-07-08T04:58:58.333Z,10.67
2018-07-08T05:01:26.657Z,10.70
2018-07-08T05:03:55.104Z,11.80
2018-07-08T05:06:23.280Z,12.63
2018-07-08T05:08:51.654Z,11.60
2018-07-08T05:11:20.022Z,9.50
2018-07-08T05:13:48.402Z,9.37
2018-07-08T05:16:16.412Z,8.70
2018-07-08T05:18:44.845Z,8.27
2018-07-08T05:21:13.126Z,7.87
2018-07-08T05:23:41.498Z,8.23
2018-07-08T05:26:09.874Z,7.77
2018-07-08T05:28:38.366Z,8.03
2018-07-08T05:31:06.677Z,7.43
2018-07-08T05:33:34.571Z,7.53
2018-07-08T05:36:02.989Z,8.33
2018-07-08T05:38:31.153Z,7.60
2018-07-08T05:40:59.086Z,7.97
2018-07-08T05:43:27.298Z,7.70
2018-07-08T05:45:55.570Z,8.30
2018-07-08T05:48:24.046Z,8.67
2018-07-08T05:50:52.629Z,8.27
2018-07-08T05:53:20.913Z,5.50
2018-07-08T05:55:49.281Z,7.93
2018-07-08T05:58:17.674Z,7.97
2018-07-08T06:00:46.055Z,12.33
2018-07-08T06:03:14.321Z,7.10
2018-07-08T06:05:42.793Z,6.57
2018-07-08T06:08:11.069Z,6.33
2018-07-08T06:10:38.995Z,6.50
2018-07-08T06:13:07.412Z,6.30
2018-07-08T06:15:35.893Z,6.60
2018-07-08T06:18:04.505Z,6.50
2018-07-08T06:20:32.864Z,6.90
2018-07-08T06:23:01.364Z,6.30
2018-07-08T06:25:29.925Z,6.50
2018-07-08T06:27:58.343Z,7.60
2018-07-08T06:30:26.786Z,5.93
2018-07-08T06:32:55.163Z,5.77
2018-07-08T06:35:23.445Z,5.90
2018-07-08T06:37:51.814Z,5.60
2018-07-08T06:40:20.197Z,5.47
2018-07-08T06:42:48.570Z,5.90
2018-07-08T06:45:16.747Z,5.60
2018-07-08T06:47:45.322Z,6.77
2018-07-08T06:50:13.697Z,6.90
2018-07-08T06:52:41.630Z,7.00
2018-07-08T06:55:09.571Z,6.33
2018-07-08T06:57:37.497Z,8.73
2018-07-08T07:00:05.413Z,6.50
2018-07-08T07:02:33.959Z,6.33
2018-07-08T07:05:02.331Z,6.87
2018-07-08T07:07:30.701Z,6.53
2018-07-08T07:09:59.018Z,10.10
2018-07-08T07:12:27.458Z,8.20
2018-07-08T07:14:55.633Z,10.33
2018-07-08T07:17:24.048Z,7.20
2018-07-08T07:19:52.085Z,8.10
2018-07-08T07:22:20.507Z,9.60
2018-07-08T07:24:49.047Z,6.83
2018-07-08T07:27:17.526Z,6.70
2018-07-08T07:29:45.906Z,8.00
2018-07-08T07:32:14.170Z,6.80
2018-07-08T07:34:42.107Z,6.63
2018-07-08T07:37:10.545Z,7.77
2018-07-08T07:39:38.720Z,7.80
2018-07-08T07:42:06.872Z,8.03
2018-07-08T07:44:35.250Z,12.03
2018-07-08T07:47:03.621Z,9.00
2018-07-08T07:49:31.554Z,10.03
2018-07-08T07:51:59.866Z,9.33
2018-07-08T07:54:28.136Z,8.60
2018-07-08T07:56:56.118Z,8.37
2018-07-08T07:59:24.391Z,8.77
2018-07-08T08:01:52.770Z,8.20
2018-07-08T08:04:21.151Z,7.73
2018-07-08T08:06:49.521Z,9.40
2018-07-08T08:09:17.803Z,9.80
2018-07-08T08:11:46.171Z,8.97
2018-07-08T08:14:14.255Z,9.30
2018-07-08T08:16:42.522Z,9.20
2018-07-08T08:19:10.903Z,9.63
2018-07-08T08:21:39.165Z,9.53
2018-07-08T08:24:07.554Z,8.67
2018-07-08T08:26:35.869Z,9.43
2018-07-08T08:29:04.338Z,8.57
2018-07-08T08:31:32.790Z,9.20
2018-07-08T08:35:06.471Z,10.53
2018-07-08T08:37:35.993Z,8.27
2018-07-08T08:40:04.689Z,9.23
2018-07-08T08:42:33.069Z,9.70
2018-07-08T08:45:01.746Z,9.80
2018-07-08T08:47:30.842Z,9.97
2018-07-08T08:49:59.424Z,9.47
2018-07-08T08:52:27.878Z,8.97
2018-07-08T08:54:56.494Z,8.70
2018-07-08T08:57:24.918Z,10.00
2018-07-08T08:59:53.706Z,9.03
2018-07-08T09:02:22.250Z,9.83
2018-07-08T09:04:50.718Z,9.20
2018-07-08T09:07:19.473Z,10.30
2018-07-08T09:09:47.657Z,10.87
2018-07-08T09:12:16.167Z,11.57
2018-07-08T09:14:44.460Z,11.90
2018-07-08T09:17:12.829Z,11.30
2018-07-08T09:19:41.276Z,12.07
2018-07-08T09:22:10.023Z,10.07
2018-07-08T09:24:38.455Z,10.53
2018-07-08T09:27:06.888Z,11.53
2018-07-08T09:29:35.421Z,8.87
2018-07-08T09:32:03.697Z,8.33
2018-07-08T09:34:32.069Z,8.80
2018-07-08T09:37:00.346Z,7.73
2018-07-08T09:39:28.717Z,9.23
2018-07-08T09:41:57.101Z,8.00
2018-07-08T09:44:25.574Z,8.27
2018-07-08T09:46:53.849Z,8.13
2018-07-08T09:49:22.121Z,8.40
2018-07-08T09:51:50.514Z,7.83
2018-07-08T09:54:18.892Z,7.07
2018-07-08T09:56:48.088Z,8.77
2018-07-08T09:59:16.365Z,8.47
2018-07-08T10:01:45.716Z,8.80
2018-07-08T10:04:16.149Z,8.07
2018-07-08T10:06:45.377Z,7.90
2018-07-08T10:09:14.909Z,8.23
2018-07-08T10:11:43.369Z,6.80
2018-07-08T10:14:13.626Z,6.60
2018-07-08T10:16:42.127Z,7.33
2018-07-08T10:19:11.318Z,7.30
2018-07-08T10:21:39.737Z,6.67
2018-07-08T10:24:08.165Z,6.57
2018-07-08T10:26:36.604Z,5.93
2018-07-08T10:29:05.140Z,6.13
2018-07-08T10:31:48.015Z,6.73
2018-07-08T10:34:16.482Z,6.07
2018-07-08T10:36:45.170Z,6.87
2018-07-08T10:39:14.127Z,6.93
2018-07-08T10:41:42.581Z,7.77
2018-07-08T10:44:11.329Z,6.30
2018-07-08T10:46:39.813Z,16.43
2018-07-08T10:49:08.442Z,8.80
2018-07-08T10:51:36.983Z,8.60
2018-07-08T10:54:05.660Z,7.80
2018-07-08T10:56:34.142Z,7.00
2018-07-08T10:59:02.544Z,7.60
2018-07-08T11:01:31.103Z,9.10
2018-07-08T11:03:59.790Z,12.17
2018-07-08T11:06:28.266Z,9.97
2018-07-08T11:08:56.633Z,8.83
2018-07-08T11:11:25.126Z,9.83
2018-07-08T11:13:53.613Z,10.23
2018-07-08T11:16:21.975Z,7.83
2018-07-08T11:18:50.465Z,9.23
2018-07-08T11:21:18.837Z,9.50
2018-07-08T11:23:47.218Z,10.47
2018-07-08T11:26:15.506Z,9.03
2018-07-08T11:28:43.553Z,8.60
2018-07-08T11:31:11.944Z,8.60
2018-07-08T11:33:40.205Z,7.60
2018-07-08T11:36:08.182Z,8.77
2018-07-08T11:38:36.662Z,8.67
2018-07-08T11:41:05.043Z,7.73
2018-07-08T11:43:33.291Z,8.10
2018-07-08T11:46:01.999Z,10.87
2018-07-08T11:48:30.370Z,10.63
2018-07-08T11:50:58.554Z,11.60
2018-07-08T11:53:26.931Z,9.33
2018-07-08T11:55:55.195Z,8.80
2018-07-08T11:58:23.679Z,9.57
2018-07-08T12:00:51.962Z,9.83
2018-07-08T12:03:20.242Z,10.03
2018-07-08T12:05:48.518Z,8.57
2018-07-08T12:08:16.889Z,9.43
2018-07-08T12:10:45.270Z,8.50
2018-07-08T12:13:13.546Z,9.20
2018-07-08T12:15:41.717Z,9.07
2018-07-08T12:18:09.968Z,8.60
2018-07-08T12:20:38.932Z,8.70
2018-07-08T12:23:07.257Z,9.03
2018-07-08T12:25:35.534Z,8.47
2018-07-08T12:28:04.014Z,8.13
2018-07-08T12:30:32.543Z,8.60
2018-07-08T12:33:00.878Z,10.10
2018-07-08T12:35:29.249Z,8.70
2018-07-08T12:37:57.525Z,9.03
2018-07-08T12:40:25.694Z,9.53
2018-07-08T12:42:54.077Z,8.67
2018-07-08T12:45:21.989Z,9.20
2018-07-08T12:47:50.526Z,8.20
2018-07-08T12:50:18.801Z,9.40
2018-07-08T12:52:46.735Z,9.43
2018-07-08T12:55:15.040Z,9.07
2018-07-08T12:57:43.422Z,9.47
2018-07-08T13:00:11.793Z,9.37
2018-07-08T13:02:39.974Z,9.50
2018-07-08T13:05:08.446Z,10.13
2018-07-08T13:07:36.742Z,10.00
2018-07-08T13:10:05.324Z,8.87
2018-07-08T13:12:34.546Z,9.90
2018-07-08T13:15:03.092Z,9.27
2018-07-08T13:17:31.570Z,10.20
2018-07-08T13:19:59.760Z,10.03
2018-07-08T13:22:28.108Z,9.63
2018-07-08T13:24:56.481Z,9.73
2018-07-08T13:27:24.773Z,9.63
2018-07-08T13:29:52.674Z,49.30
2018-07-08T13:32:21.292Z,10.30
2018-07-08T13:34:49.486Z,10.57
2018-07-08T13:37:17.773Z,10.03
2018-07-08T13:39:46.049Z,9.50
2018-07-08T13:42:14.335Z,10.00
2018-07-08T13:44:42.594Z,11.00
2018-07-08T13:47:10.873Z,12.43
2018-07-08T13:49:39.077Z,10.63
2018-07-08T13:52:07.313Z,10.90
2018-07-08T13:54:35.693Z,10.20
2018-07-08T13:57:04.075Z,9.60
2018-07-08T13:59:32.358Z,10.23
2018-07-08T14:02:00.729Z,11.37
2018-07-08T14:04:29.109Z,10.10
2018-07-08T14:06:57.491Z,10.20
2018-07-08T14:09:25.766Z,10.07
2018-07-08T14:11:54.133Z,10.27
2018-07-08T14:14:22.622Z,10.33
2018-07-08T14:16:50.967Z,10.70
2018-07-08T14:19:19.373Z,11.03
2018-07-08T14:21:47.560Z,10.50
2018-07-08T14:24:16.032Z,9.87
2018-07-08T14:26:44.513Z,7.97
2018-07-08T14:29:12.882Z,7.77
2018-07-08T14:31:41.262Z,13.17
2018-07-08T14:34:09.911Z,19.07
2018-07-08T14:36:38.215Z,12.30
2018-07-08T14:39:07.310Z,18.20
2018-07-08T14:41:35.599Z,13.53
2018-07-08T14:44:03.901Z,10.77
2018-07-08T14:46:31.936Z,8.83
2018-07-08T14:49:01.341Z,7.57
2018-07-08T14:51:29.712Z,7.73
2018-07-08T14:53:57.865Z,5.77
2018-07-08T14:56:26.174Z,6.27
2018-07-08T14:58:54.558Z,7.23
2018-07-08T15:01:23.281Z,7.43
2018-07-08T15:03:51.919Z,6.27
2018-07-08T15:06:20.193Z,6.50
2018-07-08T15:08:48.468Z,5.93
2018-07-08T15:11:16.659Z,5.70
2018-07-08T15:13:45.125Z,5.20
2018-07-08T15:16:13.402Z,4.37
2018-07-08T15:18:41.878Z,6.30
2018-07-08T15:21:10.411Z,4.83
2018-07-08T15:23:38.841Z,4.00
2018-07-08T15:26:07.220Z,4.77
2018-07-08T15:28:35.560Z,4.63
2018-07-08T15:31:03.979Z,3.60
2018-07-08T15:33:32.349Z,5.10
2018-07-08T15:36:00.730Z,6.20
2018-07-08T15:38:29.106Z,5.03
2018-07-08T15:40:57.579Z,6.53
2018-07-08T15:43:25.896Z,5.37
2018-07-08T15:45:54.337Z,5.93
2018-07-08T15:48:22.914Z,4.33
2018-07-08T15:50:51.194Z,5.87
2018-07-08T15:53:19.473Z,6.63
2018-07-08T15:55:47.848Z,6.27
2018-07-08T15:58:16.216Z,4.73
2018-07-08T16:00:44.719Z,7.33
2018-07-08T16:03:13.187Z,10.87
2018-07-08T16:05:41.564Z,7.83
2018-07-08T16:08:09.945Z,7.73
2018-07-08T16:10:38.317Z,5.57
2018-07-08T16:13:06.797Z,5.27
2018-07-08T16:15:35.191Z,6.37
2018-07-08T16:18:03.567Z,8.03
2018-07-08T16:20:32.255Z,11.50
2018-07-08T16:23:00.731Z,12.30
2018-07-08T16:25:28.799Z,14.23
2018-07-08T16:27:57.275Z,12.03
2018-07-08T16:30:25.447Z,9.80
2018-07-08T16:32:53.422Z,8.70
2018-07-08T16:35:22.098Z,36.43
2018-07-08T16:37:50.482Z,10.87
2018-07-08T16:40:18.858Z,11.23
2018-07-08T16:42:47.126Z,17.27
2018-07-08T16:45:15.515Z,14.07
2018-07-08T16:47:43.994Z,11.87
2018-07-08T16:50:12.411Z,12.03
2018-07-08T16:52:40.842Z,13.37
2018-07-08T16:55:09.113Z,21.40
2018-07-08T16:57:37.506Z,18.10
2018-07-08T17:00:06.541Z,11.63
2018-07-08T17:02:35.078Z,17.00
2018-07-08T17:05:03.551Z,12.73
2018-07-08T17:07:31.941Z,12.87
2018-07-08T17:10:00.412Z,20.43
2018-07-08T17:12:28.706Z,19.77
2018-07-08T17:14:57.072Z,16.00
2018-07-08T17:17:25.289Z,13.43
2018-07-08T17:19:53.956Z,11.47
2018-07-08T17:22:22.041Z,11.10
2018-07-08T17:24:49.921Z,11.93
2018-07-08T17:27:17.829Z,10.43
2018-07-08T17:29:45.792Z,10.60
2018-07-08T17:32:13.749Z,11.50
2018-07-08T17:34:42.466Z,11.57
2018-07-08T17:37:10.473Z,10.13
2018-07-08T17:39:38.392Z,12.57
2018-07-08T17:42:06.318Z,10.03
2018-07-08T17:44:34.378Z,10.57
2018-07-08T17:47:02.303Z,9.37
2018-07-08T17:49:30.496Z,9.57
2018-07-08T17:51:58.438Z,10.57
2018-07-08T17:54:26.436Z,10.50
2018-07-08T17:56:54.428Z,11.17
2018-07-08T17:59:22.408Z,15.43
2018-07-08T18:01:50.364Z,11.33
2018-07-08T18:04:18.282Z,11.70
2018-07-08T18:06:46.189Z,11.53
2018-07-08T18:09:14.087Z,11.97
2018-07-08T18:11:42.154Z,11.73
2018-07-08T18:14:10.111Z,12.90
2018-07-08T18:16:38.027Z,11.70
2018-07-08T18:19:06.074Z,12.80
2018-07-08T18:21:34.056Z,12.67
2018-07-08T18:24:02.526Z,12.97
2018-07-08T18:26:31.018Z,12.80
2018-07-08T18:28:59.488Z,13.00
2018-07-08T18:31:27.996Z,13.77
2018-07-08T18:33:56.338Z,13.87
2018-07-08T18:36:24.720Z,15.70
2018-07-08T18:38:52.896Z,15.53
2018-07-08T18:41:21.381Z,15.37
2018-07-08T18:43:49.766Z,14.83
2018-07-08T18:46:18.492Z,14.80
2018-07-08T18:48:46.834Z,16.87
2018-07-08T18:51:15.600Z,14.17
2018-07-08T18:53:43.985Z,13.30
2018-07-08T18:56:12.363Z,13.27
2018-07-08T18:58:40.596Z,12.73
2018-07-08T19:01:09.122Z,12.63
2018-07-08T19:03:37.389Z,14.00
2018-07-08T19:06:05.570Z,12.97
2018-07-08T19:08:33.846Z,15.80
2018-07-08T19:11:02.328Z,14.13
2018-07-08T19:13:30.498Z,12.73
2018-07-08T19:15:58.764Z,15.43
2018-07-08T19:18:27.253Z,11.90
2018-07-08T19:20:55.524Z,13.43
2018-07-08T19:23:23.904Z,14.77
2018-07-08T19:25:52.382Z,14.07
2018-07-08T19:28:20.676Z,17.37
2018-07-08T19:30:49.125Z,16.87
2018-07-08T19:33:18.098Z,15.50
2018-07-08T19:35:46.022Z,16.33
2018-07-08T19:38:14.468Z,12.73
2018-07-08T19:40:42.714Z,13.40
2018-07-08T19:43:11.407Z,12.43
2018-07-08T19:45:39.813Z,16.37
2018-07-08T19:48:08.189Z,23.27
2018-07-08T19:50:36.723Z,18.27
2018-07-08T19:53:05.522Z,16.27
2018-07-08T19:55:34.037Z,15.30
2018-07-08T19:58:02.433Z,15.90
2018-07-08T20:00:30.906Z,16.53
2018-07-08T20:02:59.278Z,19.07
2018-07-08T20:05:27.875Z,20.17
2018-07-08T20:07:56.460Z,15.73
2018-07-08T20:10:25.034Z,14.87
2018-07-08T20:12:53.414Z,16.47
2018-07-08T20:15:21.786Z,14.47
2018-07-08T20:17:50.264Z,16.47
2018-07-08T20:20:18.746Z,13.23
2018-07-08T20:22:47.138Z,18.60
2018-07-08T20:25:15.715Z,14.67
2018-07-08T20:27:44.457Z,12.67
2018-07-08T20:30:12.657Z,13.03
2018-07-08T20:32:41.150Z,13.27
2018-07-08T20:35:09.530Z,13.60
2018-07-08T20:37:37.597Z,15.47
2018-07-08T20:40:05.865Z,14.60
2018-07-08T20:42:34.241Z,17.23
2018-07-08T20:45:02.730Z,16.13
2018-07-08T20:47:31.013Z,17.17
2018-07-08T20:49:59.490Z,15.40
2018-07-08T20:52:28.096Z,17.53
2018-07-08T20:54:56.490Z,16.37
2018-07-08T20:57:24.918Z,19.73
2018-07-08T20:59:53.824Z,20.13
2018-07-08T21:02:22.193Z,15.20
2018-07-08T21:04:50.778Z,17.33
2018-07-08T21:07:19.960Z,18.17
2018-07-08T21:09:48.346Z,15.67
2018-07-08T21:12:16.722Z,15.13
2018-07-08T21:14:45.242Z,17.10
2018-07-08T21:17:13.586Z,18.13
2018-07-08T21:19:42.178Z,17.77
2018-07-08T21:22:10.749Z,20.13
2018-07-08T21:24:39.156Z,17.83
2018-07-08T21:27:07.715Z,17.23
2018-07-08T21:29:36.181Z,15.93
2018-07-08T21:32:04.573Z,15.97
2018-07-08T21:34:33.349Z,16.30
2018-07-08T21:37:01.754Z,15.80
2018-07-08T21:39:30.014Z,16.37
2018-07-08T21:41:58.593Z,15.83
2018-07-08T21:44:27.486Z,17.70
2018-07-08T21:46:55.815Z,15.40
2018-07-08T21:49:24.137Z,14.90
2018-07-08T21:51:52.504Z,18.13
2018-07-08T21:54:20.993Z,16.47
2018-07-08T21:56:49.368Z,15.77
2018-07-08T21:59:17.546Z,15.77
2018-07-08T22:01:59.602Z,17.17
2018-07-08T22:04:27.957Z,15.17
2018-07-08T22:07:01.766Z,14.40
2018-07-08T22:09:30.311Z,14.90
2018-07-08T22:11:58.778Z,16.57
2018-07-08T22:14:27.609Z,15.57
2018-07-08T22:16:56.060Z,17.37
2018-07-08T22:19:24.629Z,16.10
2018-07-08T22:21:53.111Z,15.00
2018-07-08T22:24:21.589Z,15.33
2018-07-08T22:26:49.978Z,15.60
2018-07-08T22:29:18.355Z,15.20
2018-07-08T22:31:46.527Z,17.33
2018-07-08T22:34:14.803Z,15.60
2018-07-08T22:36:43.387Z,18.80
2018-07-08T22:39:11.351Z,15.30
2018-07-08T22:41:39.731Z,15.07
2018-07-08T22:44:08.214Z,16.37
2018-07-08T22:46:36.590Z,13.40
2018-07-08T22:49:05.074Z,13.50
2018-07-08T22:51:33.542Z,12.90
2018-07-08T22:54:02.031Z,15.53
2018-07-08T22:56:30.296Z,14.67
2018-07-08T22:58:58.469Z,15.50
2018-07-08T23:01:37.619Z,16.17
2018-07-08T23:04:06.233Z,15.13
2018-07-08T23:06:34.652Z,14.37
2018-07-08T23:09:04.073Z,16.00
2018-07-08T23:11:32.540Z,14.63
2018-07-08T23:14:01.134Z,14.20
2018-07-08T23:16:29.509Z,13.57
2018-07-08T23:18:57.901Z,15.13
2018-07-08T23:21:26.167Z,14.87
2018-07-08T23:23:54.648Z,16.60
2018-07-08T23:26:22.819Z,14.13
2018-07-08T23:28:51.202Z,14.67
2018-07-08T23:31:19.474Z,14.33
2018-07-08T23:33:47.851Z,15.73
2018-07-08T23:36:16.229Z,16.17
2018-07-08T23:38:44.705Z,13.43
2018-07-08T23:41:12.877Z,13.07
2018-07-08T23:43:41.062Z,13.67
2018-07-08T23:46:09.421Z,12.20
2018-07-08T23:48:37.438Z,14.10
2018-07-08T23:51:05.876Z,13.73
2018-07-08T23:53:34.258Z,17.07
2018-07-08T23:56:02.746Z,12.47
2018-07-08T23:58:31.110Z,14.43
